createdAt,value
2022-11-09T00:01:02.122Z,98818.28
2022-11-09T00:03:28.770Z,98809.88
2022-11-09T00:05:56.998Z,98797.22
2022-11-09T00:08:23.785Z,98801.66
2022-11-09T00:10:50.415Z,98789.91
2022-11-09T00:13:17.407Z,98807.53
2022-11-09T00:15:44.237Z,98801.59
2022-11-09T00:18:10.911Z,98779.50
2022-11-09T00:20:37.545Z,98807.84
2022-11-09T00:23:04.395Z,98789.06
2022-11-09T00:25:31.120Z,98802.41
2022-11-09T00:27:57.771Z,98801.25
2022-11-09T00:30:26.865Z,98795.94
2022-11-09T00:32:53.543Z,98800.88
2022-11-09T00:35:20.109Z,98805.25
2022-11-09T00:37:46.874Z,98813.31
2022-11-09T00:40:13.537Z,98805.63
2022-11-09T00:42:40.181Z,98805.63
2022-11-09T00:45:07.251Z,98803.34
2022-11-09T00:47:34.197Z,98789.97
2022-11-09T00:50:00.777Z,98793.63
2022-11-09T00:52:27.461Z,98799.63
2022-11-09T00:54:54.395Z,98792.06
2022-11-09T00:57:21.039Z,98785.41
2022-11-09T00:59:47.723Z,98786.94
2022-11-09T01:02:14.365Z,98781.69
2022-11-09T01:04:40.969Z,98759.59
2022-11-09T01:07:08.133Z,98754.81
2022-11-09T01:09:34.856Z,98751.56
2022-11-09T01:12:01.471Z,98773.72
2022-11-09T01:14:28.247Z,98765.97
2022-11-09T01:16:54.957Z,98771.00
2022-11-09T01:19:21.553Z,98775.09
2022-11-09T01:21:48.145Z,98771.78
2022-11-09T01:24:14.949Z,98772.91
2022-11-09T01:26:41.609Z,98768.75
2022-11-09T01:29:08.272Z,98771.88
2022-11-09T01:31:35.074Z,98756.81
2022-11-09T01:34:02.027Z,98765.00
2022-11-09T01:36:28.676Z,98762.06
2022-11-09T01:38:55.530Z,98768.31
2022-11-09T01:41:27.139Z,98760.63
2022-11-09T01:44:06.808Z,98770.13
2022-11-09T01:46:38.659Z,98755.78
2022-11-09T01:49:14.349Z,98759.59
2022-11-09T01:51:50.869Z,98752.28
2022-11-09T01:54:20.768Z,98756.28
2022-11-09T01:56:50.660Z,98732.81
2022-11-09T01:59:24.052Z,98732.69
2022-11-09T02:01:52.244Z,98734.41
2022-11-09T02:04:28.432Z,98740.91
2022-11-09T02:06:56.976Z,98735.13
2022-11-09T02:09:49.429Z,98745.94
2022-11-09T02:12:19.080Z,98727.69
2022-11-09T02:14:49.670Z,98725.28
2022-11-09T02:17:17.994Z,98742.03
2022-11-09T02:19:45.324Z,98730.97
2022-11-09T02:22:12.111Z,98732.41
2022-11-09T02:24:39.012Z,98733.38
2022-11-09T02:27:06.990Z,98712.38
2022-11-09T02:29:44.052Z,98726.09
2022-11-09T02:32:16.812Z,98733.84
2022-11-09T02:34:43.485Z,98729.84
2022-11-09T02:37:10.551Z,98714.63
2022-11-09T02:39:38.388Z,98700.22
2022-11-09T02:42:13.044Z,98709.84
2022-11-09T02:44:48.213Z,98706.16
2022-11-09T02:47:15.510Z,98714.19
2022-11-09T02:49:42.850Z,98710.84
2022-11-09T02:52:10.177Z,98719.03
2022-11-09T02:54:38.061Z,98722.31
2022-11-09T02:57:05.180Z,98726.16
2022-11-09T02:59:32.767Z,98724.50
2022-11-09T03:02:00.098Z,98701.03
2022-11-09T03:04:29.507Z,98721.94
2022-11-09T03:06:56.829Z,98726.81
2022-11-09T03:09:23.693Z,98729.22
2022-11-09T03:11:50.653Z,98733.53
2022-11-09T03:14:17.512Z,98736.97
2022-11-09T03:16:50.896Z,98734.00
2022-11-09T03:19:18.721Z,98730.56
2022-11-09T03:21:47.618Z,98710.16
2022-11-09T03:24:14.315Z,98710.25
2022-11-09T03:26:41.923Z,98697.72
2022-11-09T03:29:09.101Z,98701.72
2022-11-09T03:31:36.081Z,98682.97
2022-11-09T03:34:05.841Z,98703.19
2022-11-09T03:36:35.293Z,98707.25
2022-11-09T03:39:02.100Z,98697.09
2022-11-09T03:41:28.831Z,98697.75
2022-11-09T03:43:55.625Z,98690.22
2022-11-09T03:46:22.201Z,98694.88
2022-11-09T03:48:48.911Z,98682.41
2022-11-09T03:51:15.517Z,98689.75
2022-11-09T03:53:42.193Z,98700.75
2022-11-09T03:56:08.774Z,98698.78
2022-11-09T03:58:35.363Z,98689.25
2022-11-09T04:01:01.996Z,98707.94
2022-11-09T04:03:28.734Z,98707.09
2022-11-09T04:05:55.297Z,98703.81
2022-11-09T04:08:21.915Z,98666.16
2022-11-09T04:10:48.459Z,98679.16
2022-11-09T04:13:15.073Z,98692.56
2022-11-09T04:15:43.158Z,98689.63
2022-11-09T04:18:14.056Z,98687.97
2022-11-09T04:20:41.176Z,98691.44
2022-11-09T04:23:11.234Z,98679.97
2022-11-09T04:25:40.010Z,98691.59
2022-11-09T04:28:08.215Z,98689.09
2022-11-09T04:30:36.337Z,98688.94
2022-11-09T04:33:03.716Z,98674.22
2022-11-09T04:35:33.206Z,98691.66
2022-11-09T04:38:02.501Z,98682.38
2022-11-09T04:40:32.120Z,98692.28
2022-11-09T04:43:04.076Z,98686.53
2022-11-09T04:45:33.627Z,98690.59
2022-11-09T04:48:01.818Z,98685.63
2022-11-09T04:50:29.402Z,98693.78
2022-11-09T04:52:56.005Z,98684.34
2022-11-09T04:55:22.643Z,98677.88
2022-11-09T04:57:49.234Z,98679.47
2022-11-09T05:00:16.299Z,98677.88
2022-11-09T05:02:42.849Z,98675.78
2022-11-09T05:05:09.574Z,98676.81
2022-11-09T05:07:36.969Z,98679.81
2022-11-09T05:10:03.755Z,98683.31
2022-11-09T05:12:30.359Z,98672.13
2022-11-09T05:14:56.970Z,98656.56
2022-11-09T05:17:23.536Z,98665.34
2022-11-09T05:19:54.956Z,98692.19
2022-11-09T05:23:00.695Z,98690.47
2022-11-09T05:25:27.387Z,98669.56
2022-11-09T05:27:54.083Z,98689.34
2022-11-09T05:30:20.967Z,98687.66
2022-11-09T05:32:47.593Z,98689.50
2022-11-09T05:35:14.268Z,98684.50
2022-11-09T05:37:41.655Z,98691.81
2022-11-09T05:40:09.683Z,98693.56
2022-11-09T05:42:40.915Z,98691.16
2022-11-09T05:45:40.694Z,98694.53
2022-11-09T05:47:59.853Z,98696.13
2022-11-09T05:50:26.424Z,98701.88
2022-11-09T05:53:10.872Z,98694.03
2022-11-09T05:55:37.674Z,98694.94
2022-11-09T05:58:04.826Z,98686.50
2022-11-09T06:00:31.867Z,98695.66
2022-11-09T06:03:06.199Z,98694.19
2022-11-09T06:05:34.359Z,98706.31
2022-11-09T06:08:13.408Z,98697.66
2022-11-09T06:10:40.674Z,98708.50
2022-11-09T06:13:07.563Z,98699.50
2022-11-09T06:15:34.206Z,98701.25
2022-11-09T06:18:00.964Z,98707.97
2022-11-09T06:20:28.614Z,98713.94
2022-11-09T06:22:59.922Z,98706.78
2022-11-09T06:25:31.743Z,98709.50
2022-11-09T06:27:59.013Z,98703.66
2022-11-09T06:30:26.106Z,98701.25
2022-11-09T06:32:58.228Z,98699.81
2022-11-09T06:35:24.835Z,98716.19
2022-11-09T06:37:59.055Z,98699.38
2022-11-09T06:40:26.429Z,98712.81
2022-11-09T06:42:53.183Z,98720.56
2022-11-09T06:45:20.045Z,98719.69
2022-11-09T06:47:46.620Z,98727.22
2022-11-09T06:50:13.282Z,98722.91
2022-11-09T06:52:39.899Z,98728.97
2022-11-09T06:55:08.234Z,98723.69
2022-11-09T06:57:34.882Z,98732.81
2022-11-09T07:00:01.889Z,98731.06
2022-11-09T07:02:30.205Z,98737.41
2022-11-09T07:04:56.808Z,98743.88
2022-11-09T07:07:27.999Z,98739.59
2022-11-09T07:09:55.856Z,98733.56
2022-11-09T07:12:22.591Z,98746.91
2022-11-09T07:14:49.296Z,98739.47
2022-11-09T07:17:15.960Z,98744.44
2022-11-09T07:19:42.700Z,98740.34
2022-11-09T07:22:09.332Z,98749.72
2022-11-09T07:24:35.938Z,98748.66
2022-11-09T07:27:02.530Z,98753.03
2022-11-09T07:29:29.278Z,98756.47
2022-11-09T07:31:56.103Z,98756.47
2022-11-09T07:34:22.759Z,98756.47
2022-11-09T07:36:49.383Z,98746.22
2022-11-09T07:39:16.012Z,98744.78
2022-11-09T07:41:42.596Z,98758.84
2022-11-09T07:44:09.525Z,98752.94
2022-11-09T07:46:36.235Z,98747.06
2022-11-09T07:49:02.964Z,98749.19
2022-11-09T07:51:29.552Z,98759.28
2022-11-09T07:53:56.192Z,98756.81
2022-11-09T07:56:22.741Z,98755.16
2022-11-09T07:58:50.236Z,98761.03
2022-11-09T08:01:16.833Z,98765.19
2022-11-09T08:03:43.474Z,98771.28
2022-11-09T08:06:14.266Z,98776.72
2022-11-09T08:08:43.909Z,98778.56
2022-11-09T08:11:10.562Z,98778.41
2022-11-09T08:13:37.372Z,98779.31
2022-11-09T08:16:04.542Z,98785.19
2022-11-09T08:18:31.308Z,98782.41
2022-11-09T08:21:01.085Z,98779.91
2022-11-09T08:23:27.691Z,98785.13
2022-11-09T08:25:54.273Z,98777.34
2022-11-09T08:28:21.936Z,98773.84
2022-11-09T08:31:00.270Z,98775.69
2022-11-09T08:33:29.691Z,98776.44
2022-11-09T08:35:56.638Z,98761.34
2022-11-09T08:38:23.737Z,98764.38
2022-11-09T08:40:50.520Z,98769.28
2022-11-09T08:43:17.216Z,98750.19
2022-11-09T08:45:43.869Z,98772.72
2022-11-09T08:48:15.644Z,98759.81
2022-11-09T08:50:42.269Z,98763.31
2022-11-09T08:53:09.511Z,98758.03
2022-11-09T08:55:36.695Z,98754.41
2022-11-09T08:58:04.334Z,98764.13
2022-11-09T09:00:31.468Z,98761.19
2022-11-09T09:02:58.341Z,98756.66
2022-11-09T09:05:27.028Z,98763.13
2022-11-09T09:07:53.649Z,98760.69
2022-11-09T09:10:20.286Z,98774.22
2022-11-09T09:12:47.688Z,98762.06
2022-11-09T09:15:14.435Z,98769.44
2022-11-09T09:17:41.038Z,98759.03
2022-11-09T09:20:08.031Z,98762.41
2022-11-09T09:22:34.871Z,98758.94
2022-11-09T09:25:02.259Z,98759.19
2022-11-09T09:27:29.645Z,98760.53
2022-11-09T09:29:56.982Z,98775.13
2022-11-09T09:32:23.573Z,98773.97
2022-11-09T09:34:50.438Z,98764.34
2022-11-09T09:37:18.027Z,98768.84
2022-11-09T09:39:44.776Z,98769.81
2022-11-09T09:42:18.666Z,98771.47
2022-11-09T09:45:01.776Z,98778.19
2022-11-09T09:47:53.137Z,98773.03
2022-11-09T09:50:26.917Z,98772.06
2022-11-09T09:53:18.101Z,98761.69
2022-11-09T09:55:47.747Z,98768.09
2022-11-09T09:58:29.335Z,98765.47
2022-11-09T10:01:06.198Z,98770.53
2022-11-09T10:03:32.918Z,98762.81
2022-11-09T10:06:08.610Z,98761.22
2022-11-09T10:08:59.932Z,98764.69
2022-11-09T10:11:46.142Z,98759.72
2022-11-09T10:14:22.882Z,98768.94
2022-11-09T10:16:58.394Z,98758.34
2022-11-09T10:19:33.794Z,98766.81
2022-11-09T10:22:15.116Z,98758.63
2022-11-09T10:25:12.898Z,98763.38
2022-11-09T10:27:37.169Z,98755.66
2022-11-09T10:30:17.314Z,98761.53
2022-11-09T10:32:48.299Z,98760.53
2022-11-09T10:35:21.515Z,98764.44
2022-11-09T10:37:50.301Z,98756.81
2022-11-09T10:40:51.055Z,98766.28
2022-11-09T10:43:36.151Z,98755.41
2022-11-09T10:46:21.709Z,98762.94
2022-11-09T10:49:21.145Z,98753.09
2022-11-09T10:52:26.714Z,98749.03
2022-11-09T10:55:28.982Z,98752.84
2022-11-09T10:58:29.637Z,98765.34
2022-11-09T11:01:21.559Z,98757.06
2022-11-09T11:04:26.493Z,98750.59
2022-11-09T11:07:21.271Z,98748.84
2022-11-09T11:10:17.072Z,98754.81
2022-11-09T11:13:02.347Z,98745.59
2022-11-09T11:15:48.070Z,98745.78
2022-11-09T11:18:36.179Z,98754.97
2022-11-09T11:21:23.863Z,98742.31
2022-11-09T11:24:20.452Z,98738.91
2022-11-09T11:27:22.022Z,98740.63
2022-11-09T11:30:08.517Z,98736.81
2022-11-09T11:32:54.598Z,98733.50
2022-11-09T11:35:52.890Z,98730.69
2022-11-09T11:38:43.573Z,98734.94
2022-11-09T11:41:58.675Z,98733.09
2022-11-09T11:45:12.746Z,98731.38
2022-11-09T11:48:26.463Z,98733.09
2022-11-09T11:51:37.585Z,98726.78
2022-11-09T11:54:41.347Z,98718.34
2022-11-09T11:57:48.701Z,98713.25
2022-11-09T12:01:00.135Z,98696.53
2022-11-09T12:03:50.706Z,98704.06
2022-11-09T12:07:07.516Z,98696.25
2022-11-09T12:10:13.740Z,98696.34
2022-11-09T12:13:29.495Z,98691.13
2022-11-09T12:16:30.252Z,98687.06
2022-11-09T12:19:35.239Z,98690.28
2022-11-09T12:22:41.120Z,98690.28
2022-11-09T12:25:51.138Z,98688.47
2022-11-09T12:29:01.232Z,98679.94
2022-11-09T12:31:55.014Z,98684.88
2022-11-09T12:35:10.398Z,98684.81
2022-11-09T12:38:02.699Z,98682.81
2022-11-09T12:40:54.448Z,98683.13
2022-11-09T12:44:02.400Z,98683.81
2022-11-09T12:47:01.057Z,98672.38
2022-11-09T12:49:47.244Z,98688.19
2022-11-09T12:52:33.037Z,98689.13
2022-11-09T12:55:35.730Z,98683.81
2022-11-09T12:58:24.192Z,98680.41
2022-11-09T13:01:31.654Z,98686.72
2022-11-09T13:04:20.063Z,98674.19
2022-11-09T13:07:14.645Z,98686.16
2022-11-09T13:10:02.362Z,98683.31
2022-11-09T13:12:47.849Z,98684.31
2022-11-09T13:15:34.769Z,98674.69
2022-11-09T13:18:27.155Z,98676.34
2022-11-09T13:21:35.048Z,98676.19
2022-11-09T13:24:34.240Z,98668.66
2022-11-09T13:27:48.638Z,98680.84
2022-11-09T13:30:40.998Z,98676.69
2022-11-09T13:33:27.778Z,98669.41
2022-11-09T13:36:16.872Z,98670.53
2022-11-09T13:39:32.007Z,98674.13
2022-11-09T13:42:34.413Z,98675.19
2022-11-09T13:45:27.927Z,98664.25
2022-11-09T13:48:40.424Z,98664.09
2022-11-09T13:51:46.560Z,98666.75
2022-11-09T13:54:33.423Z,98664.81
2022-11-09T13:57:19.070Z,98651.31
2022-11-09T14:00:07.011Z,98657.28
2022-11-09T14:02:55.062Z,98651.41
2022-11-09T14:05:41.568Z,98648.03
2022-11-09T14:08:40.376Z,98647.34
2022-11-09T14:11:50.125Z,98642.78
2022-11-09T14:15:06.177Z,98645.91
2022-11-09T14:18:26.297Z,98643.25
2022-11-09T14:21:23.402Z,98627.50
2022-11-09T14:24:30.767Z,98624.44
2022-11-09T14:27:19.701Z,98629.06
2022-11-09T14:30:19.204Z,98632.03
2022-11-09T14:33:21.533Z,98640.81
2022-11-09T14:36:07.433Z,98636.53
2022-11-09T14:38:52.567Z,98640.50
2022-11-09T14:41:37.949Z,98620.59
2022-11-09T14:44:40.177Z,98632.28
2022-11-09T14:47:31.360Z,98637.69
2022-11-09T14:50:36.915Z,98629.06
2022-11-09T14:53:30.105Z,98625.47
2022-11-09T14:56:19.510Z,98622.09
2022-11-09T14:59:06.972Z,98622.19
2022-11-09T15:02:05.995Z,98617.03
2022-11-09T15:04:58.436Z,98626.56
2022-11-09T15:07:48.242Z,98616.28
2022-11-09T15:10:34.140Z,98613.50
2022-11-09T15:13:40.234Z,98630.00
2022-11-09T15:16:31.489Z,98625.09
2022-11-09T15:19:29.996Z,98625.94
2022-11-09T15:22:37.113Z,98634.63
2022-11-09T15:25:27.088Z,98632.06
2022-11-09T15:28:11.959Z,98629.41
2022-11-09T15:30:56.902Z,98631.41
2022-11-09T15:33:47.293Z,98629.00
2022-11-09T15:36:35.688Z,98627.47
2022-11-09T15:39:23.565Z,98622.47
2022-11-09T15:42:11.829Z,98633.34
2022-11-09T15:44:59.170Z,98640.03
2022-11-09T15:47:56.154Z,98634.91
2022-11-09T15:50:41.876Z,98633.97
2022-11-09T15:53:27.554Z,98628.78
2022-11-09T15:56:23.476Z,98633.97
2022-11-09T15:59:16.571Z,98636.63
2022-11-09T16:02:01.826Z,98624.31
2022-11-09T16:04:47.379Z,98633.00
2022-11-09T16:07:32.366Z,98636.41
2022-11-09T16:10:20.349Z,98638.22
2022-11-09T16:13:08.601Z,98642.53
2022-11-09T16:16:02.164Z,98641.44
2022-11-09T16:18:47.266Z,98629.84
2022-11-09T16:21:32.442Z,98635.00
2022-11-09T16:24:17.768Z,98633.25
2022-11-09T16:27:12.252Z,98637.16
2022-11-09T16:29:58.452Z,98641.53
2022-11-09T16:32:43.377Z,98630.19
2022-11-09T16:35:28.920Z,98642.53
2022-11-09T16:38:14.913Z,98643.53
2022-11-09T16:41:02.185Z,98647.84
2022-11-09T16:43:54.539Z,98643.69
2022-11-09T16:46:44.096Z,98642.78
2022-11-09T16:49:29.302Z,98648.91
2022-11-09T16:52:14.693Z,98647.50
2022-11-09T16:55:00.113Z,98640.03
2022-11-09T16:57:46.160Z,98651.72
2022-11-09T17:00:55.652Z,98653.94
2022-11-09T17:03:37.038Z,98647.50
2022-11-09T17:06:22.306Z,98657.78
2022-11-09T17:09:07.573Z,98670.13
2022-11-09T17:11:52.790Z,98661.53
2022-11-09T17:14:38.072Z,98662.84
2022-11-09T17:17:23.400Z,98666.50
2022-11-09T17:20:09.178Z,98661.34
2022-11-09T17:22:54.471Z,98658.13
2022-11-09T17:25:40.382Z,98661.34
2022-11-09T17:28:27.172Z,98662.09
2022-11-09T17:31:16.371Z,98672.22
2022-11-09T17:34:01.693Z,98683.56
2022-11-09T17:37:03.656Z,98687.56
2022-11-09T17:39:50.210Z,98681.66
2022-11-09T17:42:35.493Z,98687.81
2022-11-09T17:45:20.945Z,98683.94
2022-11-09T17:48:06.490Z,98697.06
2022-11-09T17:50:51.542Z,98695.34
2022-11-09T17:53:37.134Z,98704.56
2022-11-09T17:56:22.197Z,98702.16
2022-11-09T17:59:07.495Z,98710.59
2022-11-09T18:01:54.255Z,98713.75
2022-11-09T18:04:39.382Z,98707.06
2022-11-09T18:07:25.300Z,98720.56
2022-11-09T18:10:10.463Z,98706.03
2022-11-09T18:12:55.829Z,98715.34
2022-11-09T18:15:41.363Z,98711.19
2022-11-09T18:18:28.915Z,98710.53
2022-11-09T18:21:19.525Z,98718.50
2022-11-09T18:24:05.370Z,98715.34
2022-11-09T18:26:50.738Z,98714.59
2022-11-09T18:29:35.974Z,98712.13
2022-11-09T18:32:21.578Z,98721.56
2022-11-09T18:35:07.216Z,98714.34
2022-11-09T18:37:52.178Z,98718.50
2022-11-09T18:40:37.376Z,98711.19
2022-11-09T18:43:22.611Z,98722.06
2022-11-09T18:46:11.006Z,98718.00
2022-11-09T18:48:56.830Z,98729.19
2022-11-09T18:51:42.920Z,98729.84
2022-11-09T18:54:28.410Z,98731.75
2022-11-09T18:57:17.310Z,98722.97
2022-11-09T19:00:06.124Z,98725.38
2022-11-09T19:02:51.666Z,98734.50
2022-11-09T19:05:39.873Z,98739.63
2022-11-09T19:08:44.249Z,98738.56
2022-11-09T19:11:30.621Z,98741.72
2022-11-09T19:14:15.611Z,98728.94
2022-11-09T19:17:00.916Z,98730.69
2022-11-09T19:19:46.521Z,98733.75
2022-11-09T19:22:34.577Z,98735.34
2022-11-09T19:25:19.761Z,98731.94
2022-11-09T19:28:05.030Z,98734.59
2022-11-09T19:30:50.424Z,98738.06
2022-11-09T19:33:35.621Z,98720.50
2022-11-09T19:36:30.277Z,98727.28
2022-11-09T19:39:16.662Z,98725.47
2022-11-09T19:42:01.972Z,98747.09
2022-11-09T19:44:49.843Z,98733.75
2022-11-09T19:47:39.399Z,98738.00
2022-11-09T19:50:24.433Z,98748.19
2022-11-09T19:53:09.710Z,98737.91
2022-11-09T19:56:04.289Z,98732.00
2022-11-09T19:58:51.367Z,98738.06
2022-11-09T20:01:36.428Z,98722.63
2022-11-09T20:04:22.018Z,98738.38
2022-11-09T20:07:06.987Z,98741.38
2022-11-09T20:09:52.176Z,98740.56
2022-11-09T20:12:49.506Z,98740.56
2022-11-09T20:15:34.633Z,98738.66
2022-11-09T20:18:23.552Z,98736.97
2022-11-09T20:21:09.919Z,98731.19
2022-11-09T20:23:55.446Z,98739.47
2022-11-09T20:26:43.368Z,98746.53
2022-11-09T20:29:28.440Z,98744.03
2022-11-09T20:32:14.855Z,98749.75
2022-11-09T20:35:03.333Z,98742.47
2022-11-09T20:37:48.343Z,98746.88
2022-11-09T20:40:33.601Z,98747.00
2022-11-09T20:43:18.849Z,98739.56
2022-11-09T20:46:09.266Z,98748.59
2022-11-09T20:48:55.729Z,98758.47
2022-11-09T20:51:41.840Z,98755.81
2022-11-09T20:54:26.734Z,98760.22
2022-11-09T20:57:12.064Z,98758.63
2022-11-09T20:59:57.372Z,98762.03
2022-11-09T21:02:43.145Z,98761.13
2022-11-09T21:05:28.694Z,98762.88
2022-11-09T21:08:13.950Z,98760.22
2022-11-09T21:11:04.596Z,98761.69
2022-11-09T21:13:53.773Z,98761.69
2022-11-09T21:16:39.924Z,98769.59
2022-11-09T21:19:25.243Z,98763.03
2022-11-09T21:22:11.566Z,98760.28
2022-11-09T21:25:15.788Z,98756.22
2022-11-09T21:28:19.767Z,98762.13
2022-11-09T21:31:05.228Z,98759.66
2022-11-09T21:33:53.127Z,98761.38
2022-11-09T21:36:38.334Z,98763.13
2022-11-09T21:39:23.883Z,98758.56
2022-11-09T21:42:11.856Z,98763.38
2022-11-09T21:44:57.157Z,98760.97
2022-11-09T21:47:42.688Z,98762.59
2022-11-09T21:50:27.730Z,98771.09
2022-11-09T21:53:12.989Z,98760.22
2022-11-09T21:56:00.101Z,98757.06
2022-11-09T21:58:48.784Z,98763.75
2022-11-09T22:01:34.762Z,98756.13
2022-11-09T22:04:20.270Z,98754.50
2022-11-09T22:07:05.481Z,98758.47
2022-11-09T22:10:09.522Z,98752.66
2022-11-09T22:13:14.309Z,98753.47
2022-11-09T22:16:06.378Z,98758.31
2022-11-09T22:19:11.137Z,98755.81
2022-11-09T22:21:56.445Z,98743.44
2022-11-09T22:24:42.526Z,98747.00
2022-11-09T22:27:31.205Z,98739.72
2022-11-09T22:30:16.799Z,98747.53
2022-11-09T22:33:01.614Z,98741.47
2022-11-09T22:35:56.832Z,98715.78
2022-11-09T22:38:41.898Z,98736.34
2022-11-09T22:41:27.078Z,98742.22
2022-11-09T22:44:13.302Z,98744.13
2022-11-09T22:46:59.091Z,98740.88
2022-11-09T22:49:44.467Z,98744.69
2022-11-09T22:52:29.935Z,98733.69
2022-11-09T22:55:15.134Z,98748.84
2022-11-09T22:58:00.465Z,98752.16
2022-11-09T23:00:45.509Z,98747.88
2022-11-09T23:03:30.810Z,98743.44
2022-11-09T23:06:21.838Z,98739.38
2022-11-09T23:09:06.989Z,98736.09
2022-11-09T23:11:52.172Z,98736.66
2022-11-09T23:14:55.701Z,98735.75
2022-11-09T23:17:59.407Z,98726.44
2022-11-09T23:20:44.771Z,98733.50
2022-11-09T23:23:29.930Z,98710.47
2022-11-09T23:26:15.361Z,98712.59
2022-11-09T23:29:00.607Z,98722.16
2022-11-09T23:31:46.031Z,98722.16
2022-11-09T23:34:31.170Z,98723.16
2022-11-09T23:37:16.390Z,98714.84
2022-11-09T23:40:01.681Z,98718.41
2022-11-09T23:42:46.983Z,98709.88
2022-11-09T23:45:34.336Z,98724.13
2022-11-09T23:48:19.882Z,98722.34
2022-11-09T23:51:06.107Z,98717.34
2022-11-09T23:53:51.223Z,98714.03
2022-11-09T23:56:36.460Z,98717.50
2022-11-09T23:59:22.998Z,98706.94
